• METAR

    LHBP Budapest Liszt Ferenc repülőtér METAR

    LHBP 131030Z 17010KT 5000 BR OVC004 02/01 Q0994 TEMPO 3000 BR

    QNH légnyomás:994hpa
    Hőmérséklet/temperature: 2°C
    Harmatpont/Dew Point Temp: 1°C

    LHDC Debreceni repülőtér METAR

    LHDC 131015Z AUTO 17007KT 140V200 9999 OVC031 06/05 Q0997 NOSIG

    QNH légnyomás:997hpa
    Hőmérskélet/temperature: 6°C
    Harmatpont/Dew Point Temp: 5°C

    LHPR Győr-pér repülőtér METAR

    LHPR 131015Z 14013KT 9999 FEW013 SCT033 BKN200 03/01 Q0992

    QNH légnyomás:992hpa
    Hőmérskélet/temperature: 3°C
    Harmatpont/Dew Point Temp: 1°C

    lhsm Sármellék repülőtér METAR

    LHSM 131015Z AUTO 18010KT 3400 BR OVC004 01/01 Q0993 BECMG 5000 BR

    QNH légnyomás:993hpa
    Hőmérskélet/temperature: 1°C
    Harmatpont/Dew Point Temp: 1°C

    lhpp Pécs-pogány repülőtér METAR

    LHPP 131015Z 13006KT 4000 BR BKN005 02/02 Q0994

    QNH légnyomás:994hpa
    Hőmérskélet/temperature: 2°C
    Harmatpont/Dew Point Temp: 2°C

    LHKE Kecskemét repülőtér METAR

    LHKE 131015Z 17008KT 5000 BR BKN007 03/02 Q0995 BECMG 7000 NSW RMK GRN

    QNH légnyomás:995hpa
    Hőmérskélet/temperature: 3°C
    Harmatpont/Dew Point Temp: 2°C

    LHSN Szolnok repülőtér METAR

    LHSN 131015Z 20012KT 5000 BR OVC008 04/04 Q0996 NOSIG RMK GRN

    QNH légnyomás:996hpa
    Hőmérskélet/temperature: 4°C
    Harmatpont/Dew Point Temp: 4°C

    LHUD szeged repülőtér METAR

    LHUD 032345Z 35004KT CAVOK 18/13 Q1019

    QNH légnyomás:1019hpa
    Hőmérskélet/temperature: 18°C
    Harmatpont/Dew Point Temp: 13°C

  • TÉRKÉPEK

    Felhőkép

    Széltérkép

    Hőtérkép

    radarkép

    map

    map

  • Műholdképek

    Magyarország műholdkép

    Europa műholdkép

    Europa szinoptikus térkép

  • ELTE ELŐREJELZÉS (2 NAP LHBP)

    2 napos légnyomás előrejelzés Budapest LHBP

    2 napos szél előrejelzés Budapest LHBP

    2 napos termik trigger előrejelzés Budapest LHBP

    2 napos felhőzet előrejelzés Budapest LHBP

    2 napos thermal index profile előrejelzés Budapest LHBP

    2 napos átlag emelés előrejelzés Budapest LHBP

    2 napos felhő alap előrejelzés Budapest LHBP

    2 napos hőmérséklet advekció előrejelzés Budapest LHBP

  • VILLÁMRADAR

  • ELŐREJELZÉS

  • WINDFINDER ELŐREJELZÉS

  • RIASZTÁS - VÉSZJELZÉS

Repülésmeteorológia, aktuális időjárási helyzet és előrejelzés

Repülésmeteorológia, várható időjárás jelentések, előrejelzések és riasztások. METAR, TAF adatok, aktuális időjárás helyzetek és térképek.

A meteorológia kialakulásában és fejlődésében kiemelt szerep jutott a repülésnek, illetve a repülés technikai fejlődésének. A repülésmeteorológia elsődlegesen a repülés biztonságát, másodlagosan a repülés gazdaságosságát hivatott szolgálni. Eleinte a katonai repülőgépeknek, később a polgári repülésnek, ma már a sportrepülő pilótáknak, és a mezőgazdasági pilótáknak is egyaránt szükségük van a naprakész meteorológiai információkra.

Repülésmeteorológia oldalunkon összegyűjtöttük a legnépszerűbb és legjobb időjárás oldalak hivatkozásait, hogy repülés előtt vagy akár közben minden fontos forrást egyszerűen és gyorsan megtalálj. Magyarország várható időjárása, légállapoti diagramok, termik előrejelzés, METAR adatok, vészjelzések és figyelmeztetések. A képernyő szélén közvetlenül pedig pozíciód aktuális időjárási paramétereit is megtalálod.

JOGI NYILATKOZAT

Az oldal használatával a látogató elfogadja az alábbi felhasználási feltételeket:

Az oldalon feltüntetett repülésmeteorológia információkat mindenki csak saját felelősségre használhatja. A feltüntetett külső forrásokból származó információk pontosságáért és tartalmáért, valamint az esetlegesen ebből adódó bármilyen káresemény kapcsán a FLYTIME.HU nem vállal felelősséget!